Home > Products > Valid Products > TAF

000
FTUS42 KKEY 291733
TAFMTH
TAF
KMTH 291733Z 2918/3018 33005KT P6SM SCT027 SCT200
     FM300000 VRB03KT P6SM FEW025 SCT250=



000
FTUS42 KKEY 291733
TAFEYW
TAF
KEYW 291733Z 2918/3018 34006KT P6SM FEW030 SCT200
     FM300000 VRB04KT P6SM FEW025 SCT250=



000
FTUS42 KKEY 291733
TAFEYW
TAF
KEYW 291733Z 2918/3018 34006KT P6SM FEW030 SCT200
     FM300000 VRB04KT P6SM FEW025 SCT250=



000
FTUS42 KKEY 291500 AAA
TAFEYW
TAF AMD
KEYW 291500Z 2915/3012 VRB04KT P6SM FEW027 SCT250
     FM291800 28006KT P6SM SCT027 SCT250=



000
FTUS42 KKEY 291500 AAA
TAFMTH
TAF AMD
KMTH 291500Z 2915/3012 VRB03KT P6SM FEW027 SCT250
     FM291800 30006KT P6SM SCT027 SCT250=



000
FTUS42 KKEY 291500 AAA
TAFEYW
TAF AMD
KEYW 291500Z 2915/3012 VRB04KT P6SM FEW027 SCT250
     FM291800 28006KT P6SM SCT027 SCT250=



000
FTUS42 KKEY 291138
TAFEYW
TAF
KEYW 291138Z 2912/3012 VRB04KT P6SM FEW027 SCT250
     FM291800 28006KT P6SM SCT027=



000
FTUS42 KKEY 291138
TAFMTH
TAF
KMTH 291138Z 2912/3012 VRB03KT P6SM FEW027 SCT250
     FM291800 30006KT P6SM SCT027=



000
FTUS42 KKEY 291138
TAFEYW
TAF
KEYW 291138Z 2912/3012 VRB04KT P6SM FEW027 SCT250
     FM291800 28006KT P6SM SCT027=



000
FTUS42 KKEY 291138
TAFEYW
TAF
KEYW 291138Z 2912/3012 VRB04KT P6SM FEW027 SCT250
     FM291800 28006KT P6SM SCT027=



000
FTUS42 KKEY 291138
TAFMTH
TAF
KMTH 291138Z 2912/3012 VRB03KT P6SM FEW027 SCT250
     FM291800 30006KT P6SM SCT027=



000
FTUS42 KKEY 291138
TAFEYW
TAF
KEYW 291138Z 2912/3012 VRB04KT P6SM FEW027 SCT250
     FM291800 28006KT P6SM SCT027=



000
FTUS42 KKEY 290909 AAA
TAFEYW
TAF AMD
KEYW 290909Z 2909/3006 VRB04KT P6SM FEW027 SCT250=



000
FTUS42 KKEY 290909 AAA
TAFEYW
TAF AMD
KEYW 290909Z 2909/3006 VRB04KT P6SM FEW027 SCT250=



000
FTUS42 KKEY 290909 AAA
TAFEYW
TAF AMD
KEYW 290909Z 2909/3006 VRB04KT P6SM FEW027 SCT250=



000
FTUS42 KKEY 290534
TAFEYW
TAF
KEYW 290534Z 2906/3006 VRB04KT P6SM FEW027 SCT250=



000
FTUS42 KKEY 290534
TAFMTH
TAF
KMTH 290534Z 2906/3006 VRB03KT P6SM FEW027 SCT250=



000
FTUS42 KKEY 290534
TAFMTH
TAF
KMTH 290534Z 2906/3006 VRB03KT P6SM FEW027 SCT250=



000
FTUS42 KKEY 290534
TAFEYW
TAF
KEYW 290534Z 2906/3006 VRB04KT P6SM FEW027 SCT250=



000
FTUS42 KKEY 290534
TAFEYW
TAF
KEYW 290534Z 2906/3006 VRB04KT P6SM FEW027 SCT250=



000
FTUS42 KKEY 282320
TAFEYW
TAF
KEYW 282320Z 2900/2924 31006KT P6SM FEW027 SCT250
     FM291500 20006KT P6SM SCT027 SCT250
     FM292100 31006KT P6SM FEW027 SCT250=



000
FTUS42 KKEY 282320
TAFMTH
TAF
KMTH 282320Z 2900/2924 30004KT P6SM FEW027 SCT250
     FM291500 21005KT P6SM SCT027 SCT250
     FM292100 28004KT P6SM FEW027 SCT250=



000
FTUS42 KKEY 282320
TAFEYW
TAF
KEYW 282320Z 2900/2924 31006KT P6SM FEW027 SCT250
     FM291500 20006KT P6SM SCT027 SCT250
     FM292100 31006KT P6SM FEW027 SCT250=



000
FTUS42 KKEY 282320
TAFEYW
TAF
KEYW 282320Z 2900/2924 31006KT P6SM FEW027 SCT250
     FM291500 20006KT P6SM SCT027 SCT250
     FM292100 31006KT P6SM FEW027 SCT250=



000
FTUS42 KKEY 282320
TAFEYW
TAF
KEYW 282320Z 2900/2924 31006KT P6SM FEW027 SCT250
     FM291500 20006KT P6SM SCT027 SCT250
     FM292100 31006KT P6SM FEW027 SCT250=



000
FTUS42 KKEY 282320
TAFMTH
TAF
KMTH 282320Z 2900/2924 30004KT P6SM FEW027 SCT250
     FM291500 21005KT P6SM SCT027 SCT250
     FM292100 28004KT P6SM FEW027 SCT250=



000
FTUS42 KKEY 281729
TAFMTH
TAF
KMTH 281729Z 2818/2918 VRB05KT P6SM SCT025=



000
FTUS42 KKEY 281729
TAFEYW
TAF
KEYW 281729Z 2818/2918 VRB06KT P6SM SCT025=



000
FTUS42 KKEY 281729
TAFEYW
TAF
KEYW 281729Z 2818/2918 VRB06KT P6SM SCT025=



000
FTUS42 KKEY 281729
TAFMTH
TAF
KMTH 281729Z 2818/2918 VRB05KT P6SM SCT025=



000
FTUS42 KKEY 281729
TAFEYW
TAF
KEYW 281729Z 2818/2918 VRB06KT P6SM SCT025=



000
FTUS42 KKEY 281729
TAFEYW
TAF
KEYW 281729Z 2818/2918 VRB06KT P6SM SCT025=



000
FTUS42 KKEY 281452 AAA
TAFEYW
TAF AMD
KEYW 281452Z 2815/2912 16005KT P6SM SCT030 BKN200
     FM281800 VRB06KT P6SM FEW030=



000
FTUS42 KKEY 281452 AAA
TAFMTH
TAF AMD
KMTH 281452Z 2815/2912 16005KT P6SM FEW025
     FM281600 VRB05KT P6SM FEW030=



000
FTUS42 KKEY 281452 AAA
TAFEYW
TAF AMD
KEYW 281452Z 2815/2912 16005KT P6SM SCT030 BKN200
     FM281800 VRB06KT P6SM FEW030=



000
FTUS42 KKEY 281452 AAA
TAFEYW
TAF AMD
KEYW 281452Z 2815/2912 16005KT P6SM SCT030 BKN200
     FM281800 VRB06KT P6SM FEW030=



000
FTUS42 KKEY 281452 AAA
TAFEYW
TAF AMD
KEYW 281452Z 2815/2912 16005KT P6SM SCT030 BKN200
     FM281800 VRB06KT P6SM FEW030=



000
FTUS42 KKEY 281452 AAA
TAFMTH
TAF AMD
KMTH 281452Z 2815/2912 16005KT P6SM FEW025
     FM281600 VRB05KT P6SM FEW030=



000
FTUS42 KKEY 281137
TAFEYW
TAF
KEYW 281137Z 2812/2912 20004KT P6SM FEW030 BKN200
     FM281500 VRB06KT P6SM FEW030=



000
FTUS42 KKEY 281137
TAFMTH
TAF
KMTH 281137Z 2812/2912 VRB03KT P6SM FEW025
     FM281600 VRB05KT P6SM FEW030=



000
FTUS42 KKEY 281137
TAFMTH
TAF
KMTH 281137Z 2812/2912 VRB03KT P6SM FEW025
     FM281600 VRB05KT P6SM FEW030=



000
FTUS42 KKEY 281137
TAFEYW
TAF
KEYW 281137Z 2812/2912 20004KT P6SM FEW030 BKN200
     FM281500 VRB06KT P6SM FEW030=



000
FTUS42 KKEY 281137
TAFEYW
TAF
KEYW 281137Z 2812/2912 20004KT P6SM FEW030 BKN200
     FM281500 VRB06KT P6SM FEW030=



000
FTUS42 KKEY 281137
TAFEYW
TAF
KEYW 281137Z 2812/2912 20004KT P6SM FEW030 BKN200
     FM281500 VRB06KT P6SM FEW030=



000
FTUS42 KKEY 280910 AAA
TAFEYW
TAF AMD
KEYW 280910Z 2809/2906 17005KT P6SM FEW030=



000
FTUS42 KKEY 280530
TAFMTH
TAF
KMTH 280530Z 2806/2906 VRB03KT P6SM FEW025
     FM281700 21005KT P6SM FEW030=



000
FTUS42 KKEY 280530
TAFEYW
TAF
KEYW 280530Z 2806/2906 VRB03KT P6SM FEW025
     FM281600 17005KT P6SM FEW030=



000
FTUS42 KKEY 280530
TAFEYW
TAF
KEYW 280530Z 2806/2906 VRB03KT P6SM FEW025
     FM281600 17005KT P6SM FEW030=



000
FTUS42 KKEY 272320
TAFMTH
TAF
KMTH 272320Z 2800/2824 29005KT P6SM FEW030
     FM280200 VRB03KT P6SM FEW025
     FM281700 20005KT P6SM FEW030=



000
FTUS42 KKEY 272320
TAFEYW
TAF
KEYW 272320Z 2800/2824 26006KT P6SM FEW030
     FM280300 VRB04KT P6SM FEW025
     FM281600 17007KT P6SM FEW030=



000
FTUS42 KKEY 272320
TAFEYW
TAF
KEYW 272320Z 2800/2824 26006KT P6SM FEW030
     FM280300 VRB04KT P6SM FEW025
     FM281600 17007KT P6SM FEW030=



000
FTUS42 KKEY 272320
TAFEYW
TAF
KEYW 272320Z 2800/2824 26006KT P6SM FEW030
     FM280300 VRB04KT P6SM FEW025
     FM281600 17007KT P6SM FEW030=



000
FTUS42 KKEY 272320
TAFEYW
TAF
KEYW 272320Z 2800/2824 26006KT P6SM FEW030
     FM280300 VRB04KT P6SM FEW025
     FM281600 17007KT P6SM FEW030=



000
FTUS42 KKEY 272320
TAFMTH
TAF
KMTH 272320Z 2800/2824 29005KT P6SM FEW030
     FM280200 VRB03KT P6SM FEW025
     FM281700 20005KT P6SM FEW030=



000
FTUS42 KKEY 271734
TAFEYW
TAF
KEYW 271734Z 2718/2818 21009KT P6SM FEW025
     FM272200 VRB04KT P6SM FEW030=



000
FTUS42 KKEY 271734
TAFMTH
TAF
KMTH 271734Z 2718/2818 19007KT P6SM FEW025
     FM272200 VRB04KT P6SM FEW030=



000
FTUS42 KKEY 271734
TAFEYW
TAF
KEYW 271734Z 2718/2818 21009KT P6SM FEW025
     FM272200 VRB04KT P6SM FEW030=



000
FTUS42 KKEY 271427 AAA
TAFEYW
TAF AMD
KEYW 271427Z 2714/2812 19010KT P6SM SCT025
     FM272100 22005KT P6SM SCT030=



000
FTUS42 KKEY 271427 AAA
TAFEYW
TAF AMD
KEYW 271427Z 2714/2812 19010KT P6SM SCT025
     FM272100 22005KT P6SM SCT030=



000
FTUS42 KKEY 271120
TAFEYW
TAF
KEYW 271120Z 2712/2812 19010KT P6SM SCT025
     FM272100 22005KT P6SM SCT030=



000
FTUS42 KKEY 271120
TAFEYW
TAF
KEYW 271120Z 2712/2812 19010KT P6SM SCT025
     FM272100 22005KT P6SM SCT030=



000
FTUS42 KKEY 271120
TAFEYW
TAF
KEYW 271120Z 2712/2812 19010KT P6SM SCT025
     FM272100 22005KT P6SM SCT030=



000
FTUS42 KKEY 271120
TAFEYW
TAF
KEYW 271120Z 2712/2812 19010KT P6SM SCT025
     FM272100 22005KT P6SM SCT030=



000
FTUS42 KKEY 271120
TAFMTH
TAF
KMTH 271120Z 2712/2812 19005KT P6SM SCT025
     FM272200 VRB02KT P6SM SCT030=



000
FTUS42 KKEY 271120
TAFMTH
TAF
KMTH 271120Z 2712/2812 19005KT P6SM SCT025
     FM272200 VRB02KT P6SM SCT030=



000
FTUS42 KKEY 270906 AAA
TAFEYW
TAF AMD
KEYW 270906Z 2709/2806 19009KT P6SM SCT025
     FM272000 25006KT P6SM SCT030=



000
FTUS42 KKEY 270906 AAA
TAFMTH
TAF AMD
KMTH 270906Z 2709/2806 20006KT P6SM SCT025
     FM272000 25006KT P6SM SCT030=



000
FTUS42 KKEY 270906 AAA
TAFEYW
TAF AMD
KEYW 270906Z 2709/2806 19009KT P6SM SCT025
     FM272000 25006KT P6SM SCT030=



000
FTUS42 KKEY 270527
TAFEYW
TAF
KEYW 270527Z 2706/2806 21008KT P6SM VCSH SCT022 BKN200
     FM270900 20009KT P6SM SCT025 BKN200
     FM272000 26007KT P6SM SCT030=



000
FTUS42 KKEY 270527
TAFEYW
TAF
KEYW 270527Z 2706/2806 21008KT P6SM VCSH SCT022 BKN200
     FM270900 20009KT P6SM SCT025 BKN200
     FM272000 26007KT P6SM SCT030=



000
FTUS42 KKEY 270527
TAFMTH
TAF
KMTH 270527Z 2706/2806 20005KT P6SM SCT025 BKN200
     FM272000 25006KT P6SM SCT030=



000
FTUS42 KKEY 270430 AAA
TAFEYW
TAF AMD
KEYW 270430Z 2705/2724 23008KT P6SM VCSH SCT025 BKN200
     FM272000 26007KT P6SM SCT030=



000
FTUS42 KKEY 270430 AAA
TAFEYW
TAF AMD
KEYW 270430Z 2705/2724 23008KT P6SM VCSH SCT025 BKN200
     FM272000 26007KT P6SM SCT030=



000
FTUS42 KKEY 270430 AAA
TAFEYW
TAF AMD
KEYW 270430Z 2705/2724 23008KT P6SM VCSH SCT025 BKN200
     FM272000 26007KT P6SM SCT030=



000
FTUS42 KKEY 262325
TAFMTH
TAF
KMTH 262325Z 2700/2724 23005KT P6SM SCT025 BKN200
     FM270800 20007KT P6SM VCSH SCT025 BKN200
     FM272000 25006KT P6SM SCT030=



000
FTUS42 KKEY 262325
TAFEYW
TAF
KEYW 262325Z 2700/2724 23008KT P6SM SCT025 BKN200
     FM270800 20009KT P6SM VCSH SCT025 BKN200
     FM272000 26007KT P6SM SCT030=



000
FTUS42 KKEY 262325
TAFEYW
TAF
KEYW 262325Z 2700/2724 23008KT P6SM SCT025 BKN200
     FM270800 20009KT P6SM VCSH SCT025 BKN200
     FM272000 26007KT P6SM SCT030=



000
FTUS42 KKEY 262010 AAA
TAFMTH
TAF AMD
KMTH 262010Z 2620/2718 26008KT P6SM VCSH SCT025 SCT080 BKN250
     FM270300 21007KT P6SM SCT025 BKN250=



000
FTUS42 KKEY 262009 AAA
TAFEYW
TAF AMD
KEYW 262009Z 2620/2718 26008G14KT P6SM VCSH SCT025 SCT080 BKN250
     FM270300 21008KT P6SM SCT025 BKN250=



000
FTUS42 KKEY 262009 AAA
TAFEYW
TAF AMD
KEYW 262009Z 2620/2718 26008G14KT P6SM VCSH SCT025 SCT080 BKN250
     FM270300 21008KT P6SM SCT025 BKN250=



000
FTUS42 KKEY 262009 AAA
TAFEYW
TAF AMD
KEYW 262009Z 2620/2718 26008G14KT P6SM VCSH SCT025 SCT080 BKN250
     FM270300 21008KT P6SM SCT025 BKN250=



    US Dept of Commerce
    National Oceanic and Atmospheric Administration
    National Weather Service
    1325 East West Highway
    Silver Spring, MD 20910
    Page Author: NWS Internet Services Team
Disclaimer
Information Quality
Credits
Glossary
Privacy Policy
Freedom of Information Act (FOIA)
About Us
Career Opportunities